map of HAK home
HAK - Airport
Location
City:  Haikou, Hainan, China
Name:Meilan International Airport
ICAO:ZJHK
IATA:HAK

Details
Type:Airport (Aerodrome, Airfield)
Use:Public/Civil, International (customs port of entry)
Latitude:1956'N (19.933)
Longitude:11028'E (110.460)
Elevation:75 ft (23 m)
Variation:2.03W (WMM2015v2 magnetic declination)
-0.06 annual change
Runways:1
Longest:11811 × 148 ft (3600 × 45 m), paved

Time
Time Zone:UTC+8
Local Time:

Weather
METAR:ZJHK 041400Z 12002MPS 9999 BKN007 22/21 Q1016 NOSIG

Related Locations
Nearby:
Farthest:SCCD: 12400 mi / 19956 km
Iquique [AB Los Condores], TA, CL

Find:

   beyond  
but within

Other Information
Maps:
NOTAMs:
Links:
Sources:

  
  • flag of China
  

Sectional Chart

Flight Planning
at skyvector.com

Satellite Image

Google Maps Satellite view

 

Copyright © 2004-2019 Karl L. Swartz. All rights reserved.
The Great Circle Mapper name and logo are trademarks of the Great Circle Mapper.
All other trademarks mentioned herein belong to their respective owners.
Please see credits for attibutions and further copyright information.

  Follow gcmap on Facebook Follow gcmap on Twitter GCmap on LinkedIn

hCard Microformat

Geo Microformat